Terminal Aerodrome Forecast
Issued by NWS

Home | Current Version | Previous Version | Text Only | Print | Product List | Glossary On
Versions: 1 2 3 4 5 6 7 8 9 10 11 12 13 14 15 16
236
FTUS46 KMTR 291122
TAFOAK
TAF
KOAK 291122Z 2912/3018 29012KT P6SM OVC007
     FM291930 28012KT P6SM SCT010
     FM292300 28016G21KT P6SM SCT015
     FM300300 27014KT P6SM BKN015
     FM300600 28009KT P6SM OVC011=

USA.gov is the U.S. government's official web portal to all federal, state and local government web resources and services.